Time;durP1;ratioP1;P1;durP2;ratioP2;P2;SDS_P1;SDS_P2;PMS_P1;PMS_P2;Temp;Humidity;BMP_temperature;BMP_pressure;BME280_temperature;BME280_humidity;BME280_pressure;Samples;Min_cycle;Max_cycle;Signal;HPM_P1;HPM_P2
2021/06/01 00:01:52;;;;;;;20.83;16.58;;;19.80;99.90;;;20.17;56.82;101799.44;5096493;28;20520;-73
2021/06/01 00:04:20;;;;;;;18.80;16.83;;;19.80;99.90;;;20.03;56.92;101786.38;5096471;28;20044;-73
2021/06/01 00:06:48;;;;;;;19.50;16.20;;;19.80;99.90;;;20.10;56.88;101797.81;5096524;28;20117;-73
2021/06/01 00:09:19;;;;;;;19.05;16.25;;;19.70;99.90;;;20.04;57.13;101793.50;5096343;28;20044;-73
2021/06/01 00:11:49;;;;;;;19.95;16.40;;;19.70;99.90;;;20.05;56.86;101795.28;5096642;28;20087;-73
2021/06/01 00:14:19;;;;;;;21.02;16.95;;;19.70;99.90;;;20.09;56.97;101791.56;5096264;28;20145;-73
2021/06/01 00:16:50;;;;;;;20.23;16.08;;;19.70;99.90;;;20.05;57.06;101799.78;5078063;28;20040;-73
2021/06/01 00:19:18;;;;;;;;;;;19.70;99.90;;;20.06;57.01;101797.03;5097184;28;20067;-73
2021/06/01 00:21:46;;;;;;;19.05;16.25;;;19.70;99.90;;;20.05;56.79;101795.28;5096075;28;20014;-73
2021/06/01 00:24:14;;;;;;;23.50;16.25;;;19.70;99.90;;;19.99;56.80;101802.63;5096338;28;20048;-73
2021/06/01 00:26:44;;;;;;;18.73;15.57;;;19.60;99.90;;;19.97;56.95;101789.25;5095848;28;20048;-73
2021/06/01 00:29:12;;;;;;;22.05;15.77;;;19.60;99.90;;;19.97;56.28;101791.03;5096050;28;20040;-73
2021/06/01 00:31:42;;;;;;;20.23;15.63;;;19.60;99.90;;;19.96;56.34;101784.78;5095793;28;20055;-73
2021/06/01 00:34:10;;;;;;;19.70;15.82;;;19.60;99.90;;;19.92;56.24;101782.25;5078029;28;20425;-73
2021/06/01 00:36:38;;;;;;;23.00;14.88;;;19.60;99.90;;;19.89;56.28;101782.31;5077918;28;20454;-73
2021/06/01 00:39:07;;;;;;;21.15;15.23;;;19.50;99.90;;;19.74;56.20;101770.22;5096038;28;20044;-73
2021/06/01 00:41:35;;;;;;;19.35;15.40;;;19.50;99.90;;;19.40;56.07;101703.13;5095969;28;20135;-73
2021/06/01 00:44:03;;;;;;;19.67;15.10;;;19.50;99.90;;;19.90;56.01;101784.94;5095694;28;20048;-72
2021/06/01 00:46:32;;;;;;;18.98;15.82;;;19.50;99.90;;;19.83;55.72;101769.94;5077698;28;20048;-73
2021/06/01 00:49:01;;;;;;;23.45;16.27;;;19.60;99.90;;;19.89;55.36;101785.88;5095512;28;20126;-73
2021/06/01 00:51:30;;;;;;;18.98;14.63;;;19.50;99.90;;;19.92;55.30;101788.47;5095484;28;20044;-73
2021/06/01 00:53:58;;;;;;;19.90;14.77;;;19.50;99.90;;;19.94;55.43;101777.72;5095727;28;20135;-73
2021/06/01 00:56:26;;;;;;;20.92;14.27;;;19.60;99.90;;;19.92;55.33;101782.25;5077007;28;20101;-73
2021/06/01 00:58:54;;;;;;;18.88;14.25;;;19.60;99.90;;;19.87;54.62;101776.09;5095084;28;20089;-73
2021/06/01 01:01:22;;;;;;;18.33;14.25;;;19.50;99.90;;;19.83;54.93;101775.31;5095875;28;20090;-72
2021/06/01 01:03:52;;;;;;;17.60;14.82;;;19.50;99.90;;;19.35;55.09;101722.97;5095225;28;20079;-73
2021/06/01 01:06:35;;;;;;;18.88;14.25;;;19.40;99.90;;;19.77;55.08;101770.13;5095823;28;20048;-72
2021/06/01 01:09:09;;;;;;;19.15;14.65;;;19.40;99.90;;;19.20;54.83;101673.25;5095202;28;20044;-73
2021/06/01 01:11:44;;;;;;;18.52;14.23;;;19.40;99.90;;;19.70;54.90;101761.34;5095454;28;20078;-73
2021/06/01 01:14:19;;;;;;;18.35;14.82;;;19.30;99.90;;;19.52;55.14;101758.28;5095601;28;20055;-73
2021/06/01 01:16:57;;;;;;;17.05;14.07;;;19.20;99.90;;;19.56;55.58;101763.53;5095123;28;20038;-72
2021/06/01 01:20:07;;;;;;;20.13;13.50;;;19.20;99.90;;;19.53;55.09;101771.66;5095115;28;20052;-72
2021/06/01 01:22:40;;;;;;;19.97;14.07;;;19.20;99.90;;;19.32;54.75;101749.84;5056008;28;20546;-72
2021/06/01 01:25:18;;;;;;;20.10;15.38;;;19.10;99.90;;;19.36;55.19;101764.97;5095054;28;20128;-72
2021/06/01 01:28:07;;;;;;;19.25;15.02;;;19.10;99.90;;;19.35;55.47;101763.22;5094812;28;20086;-73
2021/06/01 01:30:44;;;;;;;26.95;13.57;;;19.00;99.90;;;19.33;55.60;101770.44;5095161;28;20500;-72
2021/06/01 01:33:18;;;;;;;17.05;12.93;;;19.00;99.90;;;19.37;55.15;101766.75;5094847;28;20560;-72
2021/06/01 01:35:48;;;;;;;16.58;13.07;;;19.00;99.90;;;19.35;55.18;101766.78;5094979;28;20127;-72
2021/06/01 01:38:17;;;;;;;17.30;13.23;;;19.00;99.90;;;19.35;54.95;101768.59;5094648;28;20078;-73
2021/06/01 01:40:46;;;;;;;16.52;12.27;;;19.00;99.90;;;19.36;54.81;101763.19;5076626;28;20043;-72
2021/06/01 01:43:17;;;;;;;17.40;13.30;;;19.00;99.90;;;19.35;54.56;101760.53;5094591;28;20072;-72
2021/06/01 01:45:49;;;;;;;14.48;11.60;;;19.00;99.90;;;19.38;54.45;101755.09;5076676;28;20079;-73
2021/06/01 01:51:16;;;;;;;13.32;11.93;;;18.90;99.90;;;19.32;54.21;101756.13;5094450;28;20123;-72
2021/06/01 01:53:52;;;;;;;14.32;12.45;;;18.90;99.90;;;19.30;54.38;101757.94;5094409;28;20131;-73
2021/06/01 01:56:22;;;;;;;18.63;12.70;;;18.90;99.90;;;19.34;53.67;101758.75;5094665;28;20058;-72
2021/06/01 01:58:52;;;;;;;15.43;11.52;;;19.00;99.90;;;19.28;53.61;101745.50;5094457;28;20051;-72
2021/06/01 02:01:22;;;;;;;16.85;12.02;;;18.90;99.90;;;19.34;53.80;101758.75;5094487;28;20066;-73
2021/06/01 02:03:52;;;;;;;15.07;11.85;;;18.90;99.90;;;19.26;53.71;101753.56;5093922;28;20078;-73
2021/06/01 02:06:20;;;;;;;14.05;11.50;;;18.90;99.90;;;19.28;53.72;101758.91;5094134;28;20101;-73
2021/06/01 02:08:49;;;;;;;15.70;11.93;;;18.90;99.90;;;19.25;53.59;101757.19;5093804;28;20044;-73
2021/06/01 02:11:18;;;;;;;16.77;11.80;;;18.90;99.90;;;19.17;52.89;101758.28;5094193;28;20056;-73
2021/06/01 02:13:49;;;;;;;14.57;11.55;;;18.90;99.90;;;19.15;52.88;101752.97;5076206;28;20048;-73
2021/06/01 02:16:17;;;;;;;12.85;10.23;;;18.80;99.90;;;19.18;53.21;101757.38;5076088;28;20044;-72
2021/06/01 02:18:46;;;;;;;12.75;11.35;;;18.80;99.90;;;19.17;52.80;101753.81;5094069;28;20117;-73
2021/06/01 02:21:22;;;;;;;14.30;11.25;;;18.80;99.90;;;19.09;53.23;101747.75;5093850;28;20072;-73
2021/06/01 02:23:58;;;;;;;15.80;10.25;;;18.70;99.90;;;18.92;52.39;101721.38;5094381;28;20032;-73
2021/06/01 02:26:44;;;;;;;13.27;10.05;;;18.70;99.90;;;18.93;51.90;101727.59;5094040;28;20055;-72
2021/06/01 02:29:20;;;;;;;16.27;10.60;;;18.70;99.90;;;19.00;52.11;101768.56;5093638;28;20068;-73
2021/06/01 02:31:51;;;;;;;14.13;10.18;;;18.60;99.90;;;18.93;52.28;101751.72;5075390;28;20048;-72
2021/06/01 02:34:21;;;;;;;12.52;10.32;;;18.60;99.90;;;18.77;52.14;101758.41;5075650;28;20615;-72
2021/06/01 02:36:53;;;;;;;14.25;10.60;;;18.50;99.90;;;18.80;52.32;101744.91;5093581;28;20510;-73
2021/06/01 02:39:23;;;;;;;11.82;10.30;;;18.50;99.90;;;18.73;52.82;101743.31;5093777;28;20040;-73
2021/06/01 02:41:53;;;;;;;12.10;9.98;;;18.40;99.90;;;18.72;52.55;101750.47;5075808;28;20082;-73
2021/06/01 02:44:21;;;;;;;;;;;18.40;99.90;;;18.68;52.71;101742.50;5075955;28;20051;-73
2021/06/01 02:46:50;;;;;;;12.20;9.60;;;18.40;99.90;;;18.63;53.00;101742.66;5093355;28;19924;-73
2021/06/01 02:49:19;;;;;;;11.35;9.82;;;18.30;99.90;;;18.63;53.21;101745.31;5075386;28;20055;-73
2021/06/01 02:51:48;;;;;;;11.75;9.82;;;18.30;99.90;;;18.60;53.04;101733.81;5093459;28;20048;-73
2021/06/01 02:54:17;;;;;;;11.13;9.60;;;18.30;99.90;;;18.63;52.79;101739.97;5075315;28;20493;-73
2021/06/01 02:56:46;;;;;;;11.23;9.17;;;18.30;99.90;;;18.63;51.91;101728.34;5093517;28;20044;-73
2021/06/01 02:59:14;;;;;;;10.73;9.02;;;18.30;99.90;;;18.61;52.32;101727.50;5093123;28;20771;-73
2021/06/01 03:01:42;;;;;;;14.55;8.63;;;18.20;99.90;;;18.63;52.21;101739.06;5093348;28;20386;-72
2021/06/01 03:04:11;;;;;;;10.73;8.32;;;18.30;99.90;;;18.54;51.82;101739.31;5093629;28;20055;-72
2021/06/01 03:06:43;;;;;;;9.88;8.45;;;18.20;99.90;;;17.95;51.80;101636.16;5093286;28;20079;-72
2021/06/01 03:09:11;;;;;;;10.98;8.55;;;18.10;99.90;;;18.50;51.75;101740.28;5093295;28;20094;-73
2021/06/01 03:11:41;;;;;;;10.27;7.88;;;18.10;99.90;;;17.94;51.94;101647.78;5093287;28;20077;-72
2021/06/01 03:14:09;;;;;;;11.13;8.57;;;18.10;99.90;;;18.43;52.42;101736.84;5075161;28;20044;-72
2021/06/01 03:16:37;;;;;;;12.20;8.68;;;18.10;99.90;;;18.41;52.47;101738.66;5092820;28;20048;-72
2021/06/01 03:19:05;;;;;;;10.15;8.60;;;18.10;99.90;;;18.42;52.00;101742.22;5075069;28;20055;-72
2021/06/01 03:21:34;;;;;;;10.88;8.93;;;18.10;99.90;;;18.47;52.19;101740.34;5092443;28;20079;-72
2021/06/01 03:24:02;;;;;;;9.63;8.23;;;18.10;99.90;;;18.43;52.10;101735.97;5093098;28;20071;-73
2021/06/01 03:26:30;;;;;;;14.65;8.68;;;18.10;99.90;;;18.44;51.72;101744.00;5093130;28;20047;-73
2021/06/01 03:29:00;;;;;;;9.10;8.20;;;18.10;99.90;;;18.49;52.14;101744.75;5093152;28;20052;-73
2021/06/01 03:31:31;;;;;;;10.68;7.80;;;18.10;99.90;;;18.42;51.75;101739.53;5074851;28;20036;-73
2021/06/01 03:33:59;;;;;;;12.50;8.48;;;18.10;99.90;;;18.50;51.94;101738.50;5093216;28;20109;-72
2021/06/01 03:36:27;;;;;;;10.38;8.05;;;18.10;99.90;;;18.49;52.04;101738.50;5074835;28;20489;-72
2021/06/01 03:38:55;;;;;;;11.52;7.93;;;18.10;99.90;;;18.48;52.18;101734.06;5074804;28;20520;-72
2021/06/01 03:41:23;;;;;;;10.43;8.05;;;18.10;99.90;;;18.37;52.04;101715.53;5074791;28;20101;-73
2021/06/01 03:43:51;;;;;;;8.35;7.55;;;18.10;99.90;;;18.46;51.91;101735.91;5093169;28;20075;-72
2021/06/01 03:46:20;;;;;;;10.18;7.90;;;18.10;99.90;;;18.45;52.18;101729.66;5093173;28;20097;-73
2021/06/01 03:48:48;;;;;;;8.48;7.68;;;18.10;99.90;;;18.43;51.90;101731.50;5074657;28;20051;-73
2021/06/01 03:51:18;;;;;;;11.63;7.75;;;18.10;99.90;;;18.32;51.91;101712.06;5092902;28;20040;-73
2021/06/01 03:53:47;;;;;;;10.43;7.55;;;18.10;99.90;;;18.42;51.01;101729.75;5092564;28;20111;-73
2021/06/01 03:56:15;;;;;;;10.15;8.00;;;18.10;99.90;;;18.46;51.34;101735.91;5092584;28;20056;-73
2021/06/01 03:58:44;;;;;;;10.23;7.28;;;18.10;99.90;;;18.45;51.65;101735.03;5074725;28;20052;-73
2021/06/01 04:01:12;;;;;;;7.88;6.63;;;18.10;99.90;;;18.39;51.95;101727.09;5092763;28;20044;-73
2021/06/01 04:03:42;;;;;;;8.43;7.53;;;18.00;99.90;;;17.84;51.92;101639.09;5092757;28;20040;-73
2021/06/01 04:06:11;;;;;;;9.25;7.75;;;18.00;99.90;;;18.38;52.06;101733.38;5092927;28;20070;-73
2021/06/01 04:08:40;;;;;;;9.95;7.15;;;18.00;99.90;;;18.26;52.18;101720.25;5074123;28;20047;-73
2021/06/01 04:11:08;;;;;;;8.30;7.50;;;18.00;99.90;;;18.36;52.17;101728.97;5092590;28;20056;-72
2021/06/01 04:13:36;;;;;;;11.82;7.00;;;18.00;99.90;;;18.38;52.17;101732.47;5092645;28;20101;-77
2021/06/01 04:16:05;;;;;;;9.85;7.78;;;18.00;99.90;;;18.39;51.93;101724.41;5074592;28;20052;-71
2021/06/01 04:18:33;;;;;;;9.27;7.22;;;18.00;99.90;;;18.37;51.25;101726.22;5092351;28;20040;-69
2021/06/01 04:21:02;;;;;;;8.80;7.60;;;18.00;99.90;;;18.35;51.04;101722.72;5092268;28;20052;-70
2021/06/01 04:23:30;;;;;;;10.20;7.60;;;18.00;99.90;;;18.29;51.45;101728.19;5074059;28;20044;-70
2021/06/01 04:25:58;;;;;;;8.48;7.35;;;17.90;99.90;;;18.38;51.88;101724.44;5092218;28;20058;-69
2021/06/01 04:28:26;;;;;;;10.60;7.75;;;18.00;99.90;;;18.40;51.76;101727.97;5092404;28;20051;-71
2021/06/01 04:30:54;;;;;;;7.78;6.97;;;18.00;99.90;;;18.37;51.56;101726.22;5092498;28;20069;-72
2021/06/01 04:33:22;;;;;;;8.65;7.72;;;18.00;99.90;;;18.35;51.20;101724.53;5096072;28;20142;-71
2021/06/01 04:35:50;;;;;;;11.05;7.25;;;18.00;99.90;;;18.35;51.60;101722.72;5096069;28;20044;-72
2021/06/01 04:38:19;;;;;;;7.78;6.97;;;18.00;99.90;;;18.12;51.75;101714.31;5095712;28;20098;-72
2021/06/01 04:40:47;;;;;;;9.90;8.13;;;17.80;99.90;;;18.27;51.55;101723.81;5096225;28;20113;-74
2021/06/01 04:43:15;;;;;;;10.20;7.13;;;17.90;99.90;;;18.21;51.77;101723.94;5095950;28;20075;-69
2021/06/01 04:45:43;;;;;;;10.63;7.60;;;17.90;99.90;;;18.19;51.61;101715.97;5095614;28;20044;-70
2021/06/01 04:48:11;;;;;;;9.45;6.90;;;17.90;99.90;;;18.14;51.49;101727.69;5095959;28;20048;-69
2021/06/01 04:50:39;;;;;;;8.80;7.65;;;17.90;99.90;;;18.20;51.79;101716.81;5077722;28;20036;-70
2021/06/01 04:53:07;;;;;;;7.65;6.88;;;17.90;99.90;;;18.23;52.00;101723.00;5095424;28;20044;-70
2021/06/01 04:55:37;;;;;;;10.32;7.40;;;17.90;99.90;;;18.24;51.76;101730.13;5077362;28;20076;-69
2021/06/01 04:58:04;;;;;;;8.90;7.03;;;17.90;99.90;;;18.33;51.61;101726.34;5077458;28;20052;-69
2021/06/01 05:00:32;;;;;;;7.97;7.18;;;18.00;99.90;;;18.32;51.71;101728.16;5095960;28;20044;-68
2021/06/01 05:03:00;;;;;;;10.63;7.90;;;18.00;99.90;;;18.35;51.29;101727.22;5077410;28;20511;-69
2021/06/01 05:05:28;;;;;;;9.30;7.53;;;18.00;99.90;;;18.04;51.85;101730.53;5095487;28;20044;-68
2021/06/01 05:07:56;;;;;;;9.93;7.82;;;17.80;99.90;;;18.11;52.28;101725.94;5077537;28;20075;-69
2021/06/01 05:10:24;;;;;;;8.98;8.07;;;17.80;99.90;;;18.08;52.34;101722.47;5095264;28;20113;-69
2021/06/01 05:12:54;;;;;;;10.68;7.95;;;17.70;99.90;;;18.23;52.73;101728.38;5095395;28;20087;-68
2021/06/01 05:15:22;;;;;;;9.82;8.00;;;17.80;99.90;;;17.96;52.25;101711.06;5095417;28;20044;-68
2021/06/01 05:17:50;;;;;;;8.73;7.53;;;17.80;99.90;;;18.09;52.46;101718.84;5077126;28;20040;-69
2021/06/01 05:20:18;;;;;;;8.32;7.35;;;17.80;99.90;;;18.07;52.51;101726.03;5094941;28;20059;-68
2021/06/01 05:22:46;;;;;;;10.10;8.70;;;17.80;99.90;;;17.52;53.32;101649.56;5095182;28;20042;-68
2021/06/01 05:25:15;;;;;;;8.95;8.05;;;17.60;99.90;;;18.13;52.85;101717.88;5094818;28;20134;-68
2021/06/01 05:27:42;;;;;;;13.02;8.20;;;17.70;99.90;;;18.06;52.67;101718.94;5076758;28;20367;-69
2021/06/01 05:30:16;;;;;;;9.35;8.07;;;17.70;99.90;;;17.47;54.61;101720.09;5095051;28;20056;-69
2021/06/01 05:35:47;;;;;;;12.88;8.40;;;17.30;99.90;;;17.70;54.35;101717.88;4996167;28;20049;-68
2021/06/01 05:38:15;;;;;;;11.73;8.30;;;17.30;99.90;;;17.75;53.90;101719.56;5078865;28;20070;-68
2021/06/01 05:40:43;;;;;;;15.25;9.05;;;17.40;99.90;;;17.68;54.77;101717.03;5095138;28;20040;-69
2021/06/01 05:43:11;;;;;;;12.02;8.65;;;17.40;99.90;;;17.78;54.56;101714.16;5093891;28;20070;-69
2021/06/01 05:45:41;;;;;;;11.98;9.18;;;17.50;99.90;;;17.74;54.82;101714.22;5094755;28;20055;-69
2021/06/01 05:48:10;;;;;;;10.40;8.60;;;17.50;99.90;;;17.53;54.85;101712.00;5076530;28;20511;-68
2021/06/01 05:50:40;;;;;;;14.95;9.48;;;17.30;99.90;;;17.51;55.47;101714.69;5094570;28;20119;-69
2021/06/01 05:53:12;;;;;;;10.85;8.73;;;17.30;99.90;;;17.48;55.84;101719.19;5094732;28;20086;-69
2021/06/01 05:55:40;;;;;;;13.63;8.57;;;17.20;99.90;;;17.73;56.63;101720.53;5076190;28;20500;-69
2021/06/01 05:58:08;;;;;;;14.07;8.45;;;17.40;99.90;;;17.81;55.55;101708.72;5094539;28;20083;-69
2021/06/01 06:00:36;;;;;;;12.80;8.70;;;17.50;99.90;;;17.43;56.34;101710.34;5094193;28;20306;-69
2021/06/01 06:03:06;;;;;;;12.13;8.90;;;17.40;99.90;;;17.55;58.35;101712.84;5076348;28;20044;-68
2021/06/01 06:05:34;;;;;;;9.83;8.80;;;17.20;99.90;;;17.87;56.46;101713.06;5094022;28;20036;-69
2021/06/01 06:08:07;;;;;;;13.35;8.65;;;17.50;99.90;;;17.45;56.09;101612.25;5076375;28;20367;-69
2021/06/01 06:10:36;;;;;;;10.80;9.00;;;17.60;99.90;;;17.78;57.54;101713.25;5094294;28;20097;-69
2021/06/01 06:13:05;;;;;;;10.57;8.60;;;17.50;99.90;;;18.03;58.02;101709.16;5093839;28;20044;-70
2021/06/01 06:15:34;;;;;;;13.20;9.55;;;17.70;99.90;;;17.68;55.61;101699.19;5093920;28;20075;-70
2021/06/01 06:18:14;;;;;;;12.50;9.35;;;17.50;99.90;;;17.82;55.90;101712.28;5093895;28;20378;-70
2021/06/01 06:20:42;;;;;;;13.27;9.40;;;17.50;99.90;;;18.00;57.25;101715.44;5075926;28;20055;-70
2021/06/01 06:23:12;;;;;;;14.50;9.38;;;17.60;99.90;;;18.29;55.89;101706.78;5093687;28;20486;-70
2021/06/01 06:25:40;;;;;;;13.77;8.98;;;17.80;99.90;;;18.33;54.40;101712.97;5075704;28;20055;-70
2021/06/01 06:28:08;;;;;;;12.05;9.52;;;18.00;99.90;;;18.40;54.42;101715.47;5093871;28;20052;-70
2021/06/01 06:30:36;;;;;;;14.45;9.40;;;18.00;99.90;;;18.67;53.67;101704.13;5075528;28;20129;-70
2021/06/01 06:33:04;;;;;;;13.68;9.27;;;18.30;99.90;;;18.80;53.62;101694.88;5093599;28;20093;-67
2021/06/01 06:35:33;;;;;;;16.40;10.07;;;18.50;99.90;;;18.79;53.60;101709.16;5075532;28;20534;-68
2021/06/01 06:38:01;;;;;;;10.55;9.35;;;18.50;99.90;;;18.85;53.78;101703.66;5093483;28;20044;-69
2021/06/01 06:40:30;;;;;;;13.65;9.48;;;18.50;99.90;;;18.26;54.20;101618.47;5093742;28;20067;-68
2021/06/01 06:42:58;;;;;;;14.82;9.63;;;18.40;99.90;;;18.91;54.48;101700.81;5093697;28;20044;-69
2021/06/01 06:45:30;;;;;;;10.75;8.75;;;18.50;99.90;;;18.99;53.61;101705.13;5093509;28;20055;-69
2021/06/01 06:48:05;;;;;;;14.98;9.52;;;18.70;99.90;;;18.97;54.80;101709.66;5093249;28;20052;-69
2021/06/01 06:50:36;;;;;;;10.02;8.90;;;18.60;99.90;;;19.12;54.54;101680.63;5093425;28;20055;-69
2021/06/01 06:53:06;;;;;;;12.00;9.80;;;18.90;99.90;;;19.31;53.80;101697.09;5093406;28;20048;-69
2021/06/01 06:55:34;;;;;;;13.33;10.53;;;19.00;99.90;;;19.50;53.56;101703.75;5074200;28;20495;-67
2021/06/01 06:58:02;;;;;;;13.23;9.63;;;19.20;99.90;;;19.54;54.33;101703.66;5093442;28;20296;-70
2021/06/01 07:00:31;;;;;;;14.70;9.40;;;19.20;99.90;;;19.62;54.04;101706.13;5075201;28;20048;-67
2021/06/01 07:02:59;;;;;;;13.40;9.30;;;19.30;99.90;;;19.48;55.36;101703.81;5092865;28;20489;-67
2021/06/01 07:05:27;;;;;;;12.68;10.07;;;19.20;99.90;;;19.67;54.67;101702.38;5092479;28;20127;-68
2021/06/01 07:07:57;;;;;;;14.27;9.48;;;19.30;99.90;;;19.78;54.05;101699.41;5092455;28;20065;-68
2021/06/01 07:10:25;;;;;;;12.10;9.48;;;19.50;99.90;;;19.78;53.44;101697.56;5092630;28;20048;-68
2021/06/01 07:12:54;;;;;;;13.98;9.40;;;19.50;99.90;;;19.92;53.20;101702.53;5074516;28;20324;-67
2021/06/01 07:15:47;;;;;;;15.48;9.55;;;19.60;99.90;;;19.85;52.92;101700.06;5092735;28;20062;-67
2021/06/01 07:18:15;;;;;;;15.30;9.45;;;19.60;99.90;;;19.65;53.09;101681.84;5092621;28;20078;-67
2021/06/01 07:20:43;;;;;;;17.83;9.88;;;19.50;99.90;;;19.82;53.23;101697.50;5092562;28;20048;-67
2021/06/01 07:23:14;;;;;;;17.85;10.10;;;19.40;99.90;;;20.13;53.69;101704.56;5092156;28;20106;-67
2021/06/01 07:25:42;;;;;;;14.15;10.38;;;19.70;99.90;;;20.35;54.31;101691.41;5092305;28;20051;-67
2021/06/01 07:28:15;;;;;;;13.23;9.55;;;20.00;99.90;;;20.46;52.16;101692.81;5092565;28;20055;-67
2021/06/01 07:30:43;;;;;;;21.30;10.23;;;20.20;99.90;;;20.86;52.58;101704.97;5073983;28;20052;-66
2021/06/01 07:33:13;;;;;;;17.40;10.32;;;20.50;99.90;;;20.88;50.87;101690.53;5059468;28;20143;-66
2021/06/01 07:35:41;;;;;;;13.77;10.05;;;20.60;99.90;;;20.89;50.87;101703.06;5051059;28;20045;-66
2021/06/01 07:38:10;;;;;;;13.80;10.15;;;20.60;99.90;;;20.95;52.04;101694.78;5050852;28;20383;-66
2021/06/01 07:40:41;;;;;;;16.77;10.00;;;20.60;99.90;;;21.21;51.99;101702.00;5050796;28;20048;-67
2021/06/01 07:43:09;;;;;;;13.82;9.43;;;20.80;99.90;;;21.06;49.52;101702.53;5050813;28;20053;-67
2021/06/01 07:45:37;;;;;;;11.48;8.70;;;20.70;99.90;;;21.29;51.81;101714.22;5051904;28;20067;-66
2021/06/01 07:48:06;;;;;;;10.77;8.80;;;20.90;99.90;;;21.32;51.05;101710.56;5051814;28;20490;-67
2021/06/01 07:50:35;;;;;;;12.45;8.95;;;20.90;99.90;;;21.30;48.33;101699.84;5051915;28;20150;-68
2021/06/01 07:53:03;;;;;;;14.40;8.93;;;21.00;99.90;;;21.60;48.70;101697.88;5051784;28;20052;-68
2021/06/01 07:55:32;;;;;;;12.20;9.40;;;21.20;99.90;;;21.52;47.61;101702.66;5052030;28;20119;-67
2021/06/01 07:58:01;;;;;;;12.82;8.32;;;21.20;99.90;;;21.67;48.46;101702.09;5052011;28;20052;-67
2021/06/01 08:00:29;;;;;;;14.10;8.50;;;21.30;99.90;;;21.97;48.64;101706.38;5050672;28;20139;-67
2021/06/01 08:02:58;;;;;;;12.18;7.78;;;21.50;99.90;;;22.02;47.15;101703.50;5050516;28;20061;-68
2021/06/01 08:05:26;;;;;;;10.15;8.68;;;21.70;99.90;;;21.90;47.51;101706.66;5051825;28;20072;-69
2021/06/01 08:07:54;;;;;;;15.45;8.73;;;21.70;99.90;;;21.78;47.35;101702.56;5053475;28;20052;-70
2021/06/01 08:10:22;;;;;;;15.82;7.93;;;21.40;99.90;;;21.83;49.73;101697.94;5054214;28;20041;-71
2021/06/01 08:12:52;;;;;;;13.93;8.25;;;21.40;99.90;;;21.91;48.97;101694.97;5055498;28;20044;-70
2021/06/01 08:15:24;;;;;;;16.80;9.25;;;21.50;99.90;;;21.86;48.54;101694.25;5055842;28;20099;-70
2021/06/01 08:17:56;;;;;;;10.95;8.30;;;21.60;99.90;;;21.81;47.55;101619.00;5055941;28;20049;-70
2021/06/01 08:20:31;;;;;;;10.15;8.30;;;21.80;99.90;;;22.57;46.72;101688.78;5055645;28;20129;-71
2021/06/01 08:22:59;;;;;;;10.25;7.82;;;22.20;99.90;;;22.19;46.70;101685.75;5055369;28;20045;-70
2021/06/01 08:25:27;;;;;;;10.15;7.57;;;22.10;99.90;;;22.28;48.47;101690.75;5055173;28;20474;-70
2021/06/01 08:27:56;;;;;;;10.50;8.02;;;22.00;99.90;;;22.45;46.04;101682.88;5055189;28;20182;-70
2021/06/01 08:30:29;;;;;;;12.43;8.18;;;22.10;99.90;;;22.31;45.71;101687.97;5055044;28;20724;-70
2021/06/01 08:32:58;;;;;;;10.40;7.53;;;22.00;99.90;;;22.75;46.48;101691.56;5053722;28;20060;-70
2021/06/01 08:35:25;;;;;;;9.35;7.55;;;22.30;99.90;;;22.91;45.06;101684.59;5053878;28;20167;-70
2021/06/01 08:37:54;;;;;;;11.73;7.20;;;22.60;99.90;;;22.80;45.78;101677.91;5054927;28;20040;-70
2021/06/01 08:40:22;;;;;;;11.05;7.40;;;22.60;99.90;;;23.05;44.96;101681.31;5055455;28;20170;-71
2021/06/01 08:42:51;;;;;;;10.13;7.18;;;22.80;99.90;;;22.64;43.71;101695.66;5053753;28;20067;-70
2021/06/01 08:45:20;;;;;;;;;;;22.40;99.90;;;22.63;43.80;101689.38;5055650;28;20132;-70
2021/06/01 08:47:50;;;;;;;14.27;8.05;;;22.30;99.90;;;22.63;43.89;101680.44;5054787;28;19956;-70
2021/06/01 08:50:18;;;;;;;11.25;7.30;;;22.30;99.90;;;22.73;44.84;101682.66;5054723;28;20099;-70
2021/06/01 08:52:46;;;;;;;10.00;7.00;;;22.30;99.90;;;22.82;45.15;101678.72;5054751;28;20071;-71
2021/06/01 08:55:15;;;;;;;11.80;7.35;;;22.30;99.90;;;22.45;44.10;101661.31;5054775;28;20078;-70
2021/06/01 08:57:43;;;;;;;9.30;6.50;;;22.30;99.90;;;22.78;43.07;101694.16;5054952;28;20048;-70
2021/06/01 09:00:13;;;;;;;10.95;6.00;;;22.40;99.90;;;22.66;42.66;101674.91;5054877;28;20052;-70
2021/06/01 09:02:41;;;;;;;12.05;5.95;;;22.30;99.90;;;22.90;44.46;101673.88;5054495;28;20037;-70
2021/06/01 09:05:14;;;;;;;9.63;6.47;;;22.40;99.90;;;23.28;42.59;101660.47;5054755;28;20045;-70
2021/06/01 09:07:52;;;;;;;7.10;6.40;;;22.90;99.90;;;23.19;40.34;101665.38;5054641;28;20144;-71
2021/06/01 09:10:48;;;;;;;6.03;5.28;;;22.90;99.90;;;23.17;40.86;101643.00;5054456;28;20114;-70
2021/06/01 09:21:46;;;;;;;8.30;6.45;;;22.80;99.90;;;23.05;42.20;101667.81;5054358;28;20131;-70
2021/06/01 09:24:15;;;;;;;10.90;5.75;;;22.70;99.90;;;23.20;41.90;101669.84;5054302;28;20041;-70
2021/06/01 09:26:53;;;;;;;14.13;5.80;;;22.80;99.90;;;23.73;41.61;101673.75;5054152;28;20084;-71
2021/06/01 09:29:22;;;;;;;9.70;6.15;;;23.20;99.90;;;23.90;41.02;101652.25;5054457;28;20107;-70
2021/06/01 09:32:08;;;;;;;11.43;6.28;;;23.60;99.90;;;24.16;40.59;101670.84;5052830;28;20494;-70
2021/06/01 09:34:49;;;;;;;11.35;5.53;;;23.80;99.90;;;24.08;39.71;101678.44;5076260;28;20051;-70
2021/06/01 09:37:28;;;;;;;5.82;5.13;;;23.90;99.90;;;23.83;39.82;101672.38;5094198;28;20048;-70
2021/06/01 09:40:08;;;;;;;9.75;6.65;;;23.50;99.90;;;24.05;39.16;101669.59;5094137;28;20051;-70
2021/06/01 09:42:38;;;;;;;8.45;5.78;;;23.70;99.90;;;23.77;37.73;101674.50;5094352;28;20044;-70
2021/06/01 09:45:12;;;;;;;6.68;5.18;;;23.60;99.90;;;23.31;39.24;101656.78;5094304;28;20044;-70
2021/06/01 09:47:52;;;;;;;6.30;4.95;;;23.20;99.90;;;23.71;39.21;101670.22;5094152;28;20097;-70
2021/06/01 09:50:31;;;;;;;7.35;5.15;;;23.30;99.90;;;24.06;38.64;101666.81;5093927;28;20040;-71
2021/06/01 09:53:04;;;;;;;6.20;5.03;;;23.60;99.90;;;23.84;36.85;101659.75;5094074;28;20084;-70
2021/06/01 09:55:39;;;;;;;6.75;4.82;;;23.60;99.90;;;24.30;37.49;101658.47;5093793;28;20165;-70
2021/06/01 09:58:10;;;;;;;5.07;4.40;;;23.90;99.90;;;23.74;37.42;101662.00;5093655;28;20043;-70
2021/06/01 10:00:40;;;;;;;7.43;4.78;;;23.60;99.90;;;24.08;37.87;101659.50;5093870;28;20455;-70
2021/06/01 10:03:15;;;;;;;5.22;4.72;;;23.70;99.90;;;23.80;38.06;101666.25;5093580;28;20054;-70
2021/06/01 10:05:45;;;;;;;9.20;4.63;;;23.50;99.90;;;23.80;36.38;101659.03;5075902;28;20048;-70
2021/06/01 10:08:18;;;;;;;7.13;4.40;;;23.40;99.90;;;24.11;37.28;101669.31;5093709;28;20051;-70
2021/06/01 10:10:51;;;;;;;6.03;4.28;;;23.70;99.90;;;24.22;37.31;101655.25;5093397;28;20331;-70
2021/06/01 10:13:21;;;;;;;14.07;5.05;;;23.80;99.90;;;23.58;37.81;101555.59;5093911;28;20133;-70
2021/06/01 10:15:51;;;;;;;8.18;5.18;;;23.90;99.90;;;24.32;38.70;101646.63;5075462;28;20098;-70
2021/06/01 10:18:21;;;;;;;5.27;4.77;;;23.90;99.90;;;24.43;35.96;101654.25;5075346;28;20055;-70
2021/06/01 10:20:51;;;;;;;5.17;4.20;;;24.10;99.90;;;24.36;36.78;101650.06;5093295;28;20369;-70
2021/06/01 10:23:23;;;;;;;6.72;5.03;;;24.00;99.90;;;23.99;36.44;101649.09;5075229;28;20056;-70
2021/06/01 10:25:51;;;;;;;5.38;4.80;;;23.80;99.90;;;23.83;36.43;101647.16;5093463;28;20374;-69
2021/06/01 10:28:26;;;;;;;8.55;5.57;;;23.60;99.90;;;23.53;37.36;101649.47;5093546;28;20056;-70
2021/06/01 10:30:56;;;;;;;6.60;4.95;;;23.30;99.90;;;23.74;38.70;101655.72;5092603;28;20057;-70
2021/06/01 10:33:28;;;;;;;11.32;6.05;;;23.30;99.90;;;23.48;36.96;101642.53;5074675;28;20055;-70